createdAt,value
2023-02-22T00:02:14.038Z,33.27
2023-02-22T00:04:42.694Z,35.77
2023-02-22T00:07:11.622Z,31.43
2023-02-22T00:09:40.146Z,25.90
2023-02-22T00:12:10.381Z,36.77
2023-02-22T00:14:40.244Z,29.73
2023-02-22T00:17:08.797Z,31.43
2023-02-22T00:19:37.538Z,29.07
2023-02-22T00:22:06.218Z,31.83
2023-02-22T00:24:36.156Z,29.93
2023-02-22T00:27:04.838Z,28.40
2023-02-22T00:29:35.449Z,26.90
2023-02-22T00:32:04.164Z,35.20
2023-02-22T00:34:32.750Z,25.90
2023-02-22T00:37:04.189Z,31.67
2023-02-22T00:39:32.847Z,27.07
2023-02-22T00:42:01.601Z,24.13
2023-02-22T00:44:31.350Z,25.43
2023-02-22T00:47:01.427Z,27.37
2023-02-22T00:49:30.070Z,27.33
2023-02-22T00:51:59.825Z,26.03
2023-02-22T00:54:28.892Z,23.43
2023-02-22T00:56:58.159Z,24.77
2023-02-22T00:59:28.394Z,27.07
2023-02-22T01:01:58.599Z,24.93
2023-02-22T01:04:29.801Z,26.27
2023-02-22T01:07:00.546Z,24.30
2023-02-22T01:09:29.564Z,24.27
2023-02-22T01:11:58.349Z,23.17
2023-02-22T01:14:28.201Z,28.50
2023-02-22T01:16:57.659Z,24.17
2023-02-22T01:19:27.801Z,24.63
2023-02-22T01:21:56.937Z,23.07
2023-02-22T01:24:25.763Z,21.03
2023-02-22T01:26:56.640Z,20.23
2023-02-22T01:29:25.092Z,23.53
2023-02-22T01:31:55.551Z,23.10
2023-02-22T01:34:25.594Z,23.77
2023-02-22T01:36:56.542Z,26.10
2023-02-22T01:39:25.069Z,24.70
2023-02-22T01:41:54.650Z,24.50
2023-02-22T01:44:29.113Z,23.77
2023-02-22T01:47:02.011Z,23.97
2023-02-22T01:49:34.553Z,26.53
2023-02-22T01:52:09.543Z,26.33
2023-02-22T01:54:42.349Z,31.13
2023-02-22T01:57:18.954Z,25.80
2023-02-22T01:59:50.746Z,26.23
2023-02-22T02:02:21.625Z,24.63
2023-02-22T02:04:50.574Z,24.17
2023-02-22T02:07:23.410Z,23.63
2023-02-22T02:10:01.483Z,25.40
2023-02-22T02:12:33.629Z,29.07
2023-02-22T02:15:22.419Z,22.47
2023-02-22T02:17:53.656Z,26.73
2023-02-22T02:20:28.458Z,27.47
2023-02-22T02:23:06.261Z,27.73
2023-02-22T02:26:18.072Z,24.77
2023-02-22T02:29:12.394Z,27.97
2023-02-22T02:32:05.588Z,35.47
2023-02-22T02:34:41.952Z,29.90
2023-02-22T02:37:17.290Z,32.33
2023-02-22T02:39:52.975Z,29.33
2023-02-22T02:42:26.431Z,32.37
2023-02-22T02:45:02.576Z,31.47
2023-02-22T02:47:37.641Z,35.87
2023-02-22T02:50:10.183Z,31.67
2023-02-22T02:52:42.058Z,27.13
2023-02-22T02:55:12.264Z,35.07
2023-02-22T02:57:43.049Z,37.20
2023-02-22T03:00:23.291Z,33.67
2023-02-22T03:03:06.628Z,38.83
2023-02-22T03:05:52.545Z,34.53
2023-02-22T03:08:29.379Z,30.87
2023-02-22T03:11:06.718Z,37.13
2023-02-22T03:13:40.346Z,31.17
2023-02-22T03:16:19.209Z,29.97
2023-02-22T03:18:56.357Z,35.10
2023-02-22T03:21:31.942Z,32.97
2023-02-22T03:24:07.931Z,42.03
2023-02-22T03:26:41.116Z,34.07
2023-02-22T03:29:16.054Z,38.30
2023-02-22T03:31:52.193Z,37.40
2023-02-22T03:34:29.478Z,32.83
2023-02-22T03:37:03.800Z,34.63
2023-02-22T03:39:33.589Z,34.80
2023-02-22T03:42:07.273Z,33.97
2023-02-22T03:44:40.232Z,36.10
2023-02-22T03:47:13.035Z,37.20
2023-02-22T03:49:47.348Z,42.37
2023-02-22T03:52:17.342Z,35.63
2023-02-22T03:54:45.905Z,40.20
2023-02-22T03:57:21.972Z,35.67
2023-02-22T03:59:55.273Z,39.53
2023-02-22T04:02:23.777Z,44.17
2023-02-22T04:04:54.368Z,43.77
2023-02-22T04:07:23.198Z,35.70
2023-02-22T04:09:51.973Z,47.20
2023-02-22T04:12:20.496Z,40.60
2023-02-22T04:14:57.490Z,42.87
2023-02-22T04:17:26.033Z,36.50
2023-02-22T04:19:55.930Z,40.77
2023-02-22T04:22:26.629Z,36.50
2023-02-22T04:24:55.164Z,45.20
2023-02-22T04:27:23.836Z,42.33
2023-02-22T04:29:52.511Z,47.73
2023-02-22T04:32:21.400Z,49.60
2023-02-22T04:34:50.130Z,43.30
2023-02-22T04:37:20.075Z,52.97
2023-02-22T04:39:48.579Z,52.17
2023-02-22T04:42:17.313Z,47.70
2023-02-22T04:44:45.967Z,47.13
2023-02-22T04:47:14.823Z,45.30
2023-02-22T04:49:43.334Z,52.13
2023-02-22T04:52:12.025Z,49.17
2023-02-22T04:54:42.677Z,39.53
2023-02-22T04:57:11.262Z,47.43
2023-02-22T04:59:40.666Z,44.80
2023-02-22T05:02:12.886Z,50.47
2023-02-22T05:04:41.460Z,47.07
2023-02-22T05:07:10.015Z,47.07
2023-02-22T05:09:38.727Z,41.47
2023-02-22T05:12:09.062Z,37.30
2023-02-22T05:14:37.540Z,44.87
2023-02-22T05:17:06.162Z,57.57
2023-02-22T05:19:34.693Z,44.40
2023-02-22T05:22:03.673Z,53.43
2023-02-22T05:24:32.267Z,51.43
2023-02-22T05:27:00.825Z,58.10
2023-02-22T05:29:30.712Z,60.40
2023-02-22T05:31:59.243Z,53.63
2023-02-22T05:34:27.961Z,65.03
2023-02-22T05:36:56.437Z,66.90
2023-02-22T05:39:24.961Z,62.70
2023-02-22T05:41:53.452Z,62.63
2023-02-22T05:44:21.981Z,65.80
2023-02-22T05:46:51.931Z,71.30
2023-02-22T05:49:20.570Z,70.07
2023-02-22T05:51:49.262Z,68.90
2023-02-22T05:54:17.870Z,101.60
2023-02-22T05:56:46.407Z,69.17
2023-02-22T05:59:14.934Z,71.27
2023-02-22T06:01:43.636Z,69.20
2023-02-22T06:04:13.531Z,70.63
2023-02-22T06:06:41.993Z,74.90
2023-02-22T06:09:10.486Z,68.53
2023-02-22T06:11:38.921Z,80.80
2023-02-22T06:14:08.187Z,69.00
2023-02-22T06:16:36.773Z,63.67
2023-02-22T06:19:05.445Z,73.87
2023-02-22T06:21:35.276Z,71.87
2023-02-22T06:24:04.180Z,78.27
2023-02-22T06:26:32.729Z,79.47
2023-02-22T06:29:02.046Z,95.90
2023-02-22T06:31:31.723Z,89.63
2023-02-22T06:34:00.206Z,104.23
2023-02-22T06:36:28.710Z,106.57
2023-02-22T06:38:58.961Z,100.70
2023-02-22T06:41:27.487Z,92.33
2023-02-22T06:43:56.026Z,77.73
2023-02-22T06:46:24.476Z,106.77
2023-02-22T06:48:53.050Z,92.17
2023-02-22T06:51:22.039Z,124.27
2023-02-22T06:53:50.540Z,92.43
2023-02-22T06:56:20.345Z,81.93
2023-02-22T06:58:49.396Z,94.10
2023-02-22T07:01:18.474Z,72.10
2023-02-22T07:03:47.139Z,121.27
2023-02-22T07:06:15.859Z,82.43
2023-02-22T07:08:44.372Z,71.63
2023-02-22T07:11:13.139Z,80.57
2023-02-22T07:13:43.070Z,79.90
2023-02-22T07:16:11.654Z,85.07
2023-02-22T07:18:40.120Z,80.83
2023-02-22T07:21:08.690Z,86.90
2023-02-22T07:23:37.648Z,83.53
2023-02-22T07:26:06.502Z,84.57
2023-02-22T07:28:35.040Z,85.33
2023-02-22T07:31:05.060Z,76.37
2023-02-22T07:33:33.510Z,100.87
2023-02-22T07:36:01.996Z,101.03
2023-02-22T07:38:30.557Z,86.03
2023-02-22T07:40:59.405Z,102.10
2023-02-22T07:43:29.266Z,150.57
2023-02-22T07:46:02.776Z,95.13
2023-02-22T07:48:33.215Z,89.30
2023-02-22T07:51:01.757Z,86.83
2023-02-22T07:53:33.375Z,73.10
2023-02-22T07:56:05.061Z,87.20
2023-02-22T07:58:35.243Z,78.37
2023-02-22T08:01:04.017Z,83.10
2023-02-22T08:03:36.762Z,69.47
2023-02-22T08:06:07.004Z,63.73
2023-02-22T08:08:36.355Z,65.70
2023-02-22T08:11:05.729Z,58.70
2023-02-22T08:13:34.366Z,60.17
2023-02-22T08:16:03.519Z,61.13
2023-02-22T08:18:33.448Z,58.30
2023-02-22T08:21:02.003Z,52.83
2023-02-22T08:23:31.619Z,50.23
2023-02-22T08:26:06.287Z,48.50
2023-02-22T08:28:35.174Z,45.83
2023-02-22T08:31:04.066Z,47.10
2023-02-22T08:33:35.119Z,44.90
2023-02-22T08:36:03.665Z,49.60
2023-02-22T08:38:34.010Z,44.27
2023-02-22T08:41:02.503Z,47.63
2023-02-22T08:43:30.963Z,39.30
2023-02-22T08:45:59.573Z,38.83
2023-02-22T08:48:28.117Z,43.50
2023-02-22T08:50:58.087Z,42.40
2023-02-22T08:53:26.549Z,47.40
2023-02-22T08:55:55.211Z,42.30
2023-02-22T08:58:23.808Z,31.80
2023-02-22T09:00:52.296Z,36.37
2023-02-22T09:03:21.004Z,41.23
2023-02-22T09:05:49.762Z,42.30
2023-02-22T09:08:19.884Z,43.60
2023-02-22T09:10:48.719Z,40.23
2023-02-22T09:13:17.318Z,45.40
2023-02-22T09:15:46.070Z,43.00
2023-02-22T09:18:18.008Z,41.73
2023-02-22T09:20:46.577Z,43.17
2023-02-22T09:23:15.398Z,41.77
2023-02-22T09:25:45.350Z,42.00
2023-02-22T09:28:14.177Z,38.87
2023-02-22T09:30:43.763Z,38.57
2023-02-22T09:33:14.652Z,35.93
2023-02-22T09:35:46.487Z,40.50
2023-02-22T09:38:18.159Z,34.63
2023-02-22T09:40:51.153Z,36.57
2023-02-22T09:43:32.325Z,36.27
2023-02-22T09:46:19.748Z,36.53
2023-02-22T09:49:03.398Z,30.67
2023-02-22T09:51:38.403Z,35.17
2023-02-22T09:54:17.644Z,34.00
2023-02-22T09:56:51.314Z,30.07
2023-02-22T09:59:26.946Z,31.20
2023-02-22T10:02:01.825Z,29.23
2023-02-22T10:04:42.486Z,29.53
2023-02-22T10:07:19.460Z,31.20
2023-02-22T10:09:50.826Z,30.67
2023-02-22T10:12:30.731Z,36.33
2023-02-22T10:15:31.278Z,33.97
2023-02-22T10:18:14.345Z,29.90
2023-02-22T10:20:53.204Z,27.53
2023-02-22T10:23:29.832Z,35.07
2023-02-22T10:26:14.809Z,28.73
2023-02-22T10:28:55.204Z,25.97
2023-02-22T10:31:28.128Z,24.43
2023-02-22T10:34:00.980Z,29.37
2023-02-22T10:36:29.884Z,25.70
2023-02-22T10:39:01.204Z,27.90
2023-02-22T10:41:31.976Z,28.10
2023-02-22T10:44:03.165Z,30.37
2023-02-22T10:46:34.180Z,25.97
2023-02-22T10:49:07.361Z,27.20
2023-02-22T10:51:36.519Z,26.70
2023-02-22T10:54:24.049Z,25.63
2023-02-22T10:56:55.473Z,22.37
2023-02-22T10:59:30.795Z,29.17
2023-02-22T11:01:59.360Z,28.87
2023-02-22T11:04:46.431Z,31.57
2023-02-22T11:07:25.134Z,28.37
2023-02-22T11:09:55.675Z,27.77
2023-02-22T11:12:30.339Z,25.90
2023-02-22T11:15:28.035Z,27.60
2023-02-22T11:18:01.328Z,34.03
2023-02-22T11:20:34.788Z,29.97
2023-02-22T11:23:08.116Z,32.57
2023-02-22T11:25:39.517Z,30.27
2023-02-22T11:28:11.110Z,29.27
2023-02-22T11:30:43.830Z,34.13
2023-02-22T11:33:23.404Z,32.00
2023-02-22T11:35:53.661Z,31.20
2023-02-22T11:38:24.078Z,27.10
2023-02-22T11:41:18.854Z,31.20
2023-02-22T11:43:51.094Z,42.97
2023-02-22T11:46:23.419Z,43.83
2023-02-22T11:49:04.559Z,34.30
2023-02-22T11:51:46.745Z,31.03
2023-02-22T11:54:28.996Z,37.70
2023-02-22T11:57:07.200Z,31.33
2023-02-22T11:59:40.873Z,30.70
2023-02-22T12:02:31.781Z,33.40
2023-02-22T12:05:20.957Z,32.13
2023-02-22T12:08:13.799Z,32.20
2023-02-22T12:10:57.930Z,38.30
2023-02-22T12:13:45.299Z,35.97
2023-02-22T12:16:22.364Z,33.53
2023-02-22T12:19:11.256Z,30.87
2023-02-22T12:21:45.112Z,33.27
2023-02-22T12:24:18.516Z,32.37
2023-02-22T12:26:51.526Z,31.97
2023-02-22T12:29:28.558Z,40.13
2023-02-22T12:32:01.700Z,35.77
2023-02-22T12:34:37.482Z,38.47
2023-02-22T12:37:19.147Z,35.33
2023-02-22T12:40:00.584Z,26.53
2023-02-22T12:42:34.482Z,26.43
2023-02-22T12:45:10.376Z,32.03
2023-02-22T12:47:46.835Z,25.67
2023-02-22T12:50:22.372Z,31.53
2023-02-22T12:52:58.774Z,28.80
2023-02-22T12:55:33.448Z,28.43
2023-02-22T12:58:08.995Z,32.20
2023-02-22T13:00:44.451Z,28.67
2023-02-22T13:03:29.899Z,30.93
2023-02-22T13:06:07.023Z,28.63
2023-02-22T13:08:42.723Z,28.13
2023-02-22T13:11:18.201Z,32.50
2023-02-22T13:13:55.263Z,27.27
2023-02-22T13:16:34.377Z,33.57
2023-02-22T13:19:10.163Z,27.80
2023-02-22T13:21:47.905Z,22.80
2023-02-22T13:24:25.869Z,28.33
2023-02-22T13:27:00.309Z,24.17
2023-02-22T13:29:34.707Z,37.83
2023-02-22T13:32:15.470Z,27.83
2023-02-22T13:35:02.126Z,26.53
2023-02-22T13:37:50.905Z,29.80
2023-02-22T13:40:36.583Z,30.33
2023-02-22T13:43:20.094Z,33.30
2023-02-22T13:46:02.750Z,24.30
2023-02-22T13:48:53.985Z,26.10
2023-02-22T13:51:40.491Z,25.13
2023-02-22T13:54:16.179Z,28.30
2023-02-22T13:56:47.672Z,23.57
2023-02-22T13:59:25.917Z,24.47
2023-02-22T14:01:54.981Z,20.87
2023-02-22T14:04:40.765Z,27.17
2023-02-22T14:07:47.912Z,26.40
2023-02-22T14:10:39.792Z,24.93
2023-02-22T14:13:09.633Z,23.80
2023-02-22T14:15:58.509Z,27.00
2023-02-22T14:18:28.212Z,32.03
2023-02-22T14:21:07.550Z,25.67
2023-02-22T14:23:40.206Z,25.73
2023-02-22T14:26:15.030Z,23.37
2023-02-22T14:28:53.233Z,24.37
2023-02-22T14:31:35.562Z,21.57
2023-02-22T14:34:15.781Z,23.20
2023-02-22T14:36:50.817Z,24.70
2023-02-22T14:39:25.838Z,29.57
2023-02-22T14:42:01.407Z,25.40
2023-02-22T14:44:35.861Z,20.13
2023-02-22T14:47:08.346Z,19.83
2023-02-22T14:49:42.442Z,27.17
2023-02-22T14:52:20.842Z,25.83
2023-02-22T14:55:04.370Z,23.40
2023-02-22T14:57:45.836Z,21.33
2023-02-22T15:00:30.892Z,17.60
2023-02-22T15:03:01.544Z,20.00
2023-02-22T15:05:38.413Z,23.63
2023-02-22T15:08:09.042Z,18.63
2023-02-22T15:10:43.768Z,20.57
2023-02-22T15:13:19.692Z,17.70
2023-02-22T15:15:55.330Z,22.73
2023-02-22T15:18:29.375Z,17.77
2023-02-22T15:20:59.499Z,21.40
2023-02-22T15:23:33.245Z,21.67
2023-02-22T15:26:02.755Z,19.27
2023-02-22T15:28:32.130Z,24.13
2023-02-22T15:31:19.633Z,20.87
2023-02-22T15:33:48.421Z,20.40
2023-02-22T15:36:18.028Z,19.20
2023-02-22T15:38:51.399Z,22.03
2023-02-22T15:41:28.305Z,20.40
2023-02-22T15:44:17.732Z,21.40
2023-02-22T15:46:55.113Z,23.50
2023-02-22T15:49:24.837Z,25.37
2023-02-22T15:52:09.438Z,23.33
2023-02-22T15:54:48.103Z,20.30
2023-02-22T15:57:19.003Z,21.13
2023-02-22T15:59:51.474Z,22.60
2023-02-22T16:02:35.087Z,25.57
2023-02-22T16:05:08.170Z,19.00
2023-02-22T16:07:42.058Z,25.67
2023-02-22T16:10:22.172Z,22.10
2023-02-22T16:12:52.522Z,30.47
2023-02-22T16:15:21.051Z,24.43
2023-02-22T16:18:01.372Z,20.40
2023-02-22T16:20:33.604Z,29.40
2023-02-22T16:23:22.426Z,21.23
2023-02-22T16:26:03.572Z,26.37
2023-02-22T16:28:35.449Z,19.60
2023-02-22T16:31:04.719Z,28.30
2023-02-22T16:33:34.868Z,30.77
2023-02-22T16:36:08.110Z,23.60
2023-02-22T16:38:39.500Z,21.20
2023-02-22T16:41:08.594Z,27.83
2023-02-22T16:43:37.696Z,25.53
2023-02-22T16:46:07.338Z,29.77
2023-02-22T16:48:38.545Z,28.35
2023-02-22T16:51:17.775Z,28.87
2023-02-22T16:53:46.858Z,31.20
2023-02-22T16:56:18.663Z,30.30
2023-02-22T16:58:50.517Z,31.83
2023-02-22T17:01:19.990Z,26.20
2023-02-22T17:03:50.618Z,30.73
2023-02-22T17:06:19.348Z,25.47
2023-02-22T17:08:48.738Z,28.40
2023-02-22T17:11:17.176Z,28.53
2023-02-22T17:13:46.009Z,28.67
2023-02-22T17:16:16.091Z,27.20
2023-02-22T17:18:45.929Z,36.47
2023-02-22T17:21:17.020Z,32.10
2023-02-22T17:23:46.160Z,31.57
2023-02-22T17:26:15.709Z,32.63
2023-02-22T17:28:44.656Z,32.93
2023-02-22T17:31:21.750Z,36.87
2023-02-22T17:33:51.279Z,30.17
2023-02-22T17:36:21.886Z,36.70
2023-02-22T17:38:50.319Z,39.57
2023-02-22T17:41:18.795Z,42.27
2023-02-22T17:43:47.258Z,44.83
2023-02-22T17:46:15.969Z,44.63
2023-02-22T17:48:44.724Z,41.63
2023-02-22T17:51:13.724Z,42.73
2023-02-22T17:53:43.534Z,43.17
2023-02-22T17:56:14.301Z,41.83
2023-02-22T17:58:43.066Z,44.47
2023-02-22T18:01:21.294Z,45.93
2023-02-22T18:03:50.266Z,45.37
2023-02-22T18:06:22.632Z,49.00
2023-02-22T18:08:56.552Z,50.53
2023-02-22T18:11:26.737Z,50.07
2023-02-22T18:13:56.149Z,55.40
2023-02-22T18:16:26.599Z,47.57
2023-02-22T18:18:56.259Z,48.03
2023-02-22T18:21:26.706Z,48.27
2023-02-22T18:23:58.160Z,51.07
2023-02-22T18:26:27.011Z,51.43
2023-02-22T18:28:55.696Z,48.03
2023-02-22T18:31:24.780Z,53.97
2023-02-22T18:33:54.366Z,55.70
2023-02-22T18:36:23.750Z,58.63
2023-02-22T18:38:53.660Z,63.90
2023-02-22T18:41:26.340Z,59.20
2023-02-22T18:43:58.883Z,56.93
2023-02-22T18:46:29.900Z,58.50
2023-02-22T18:48:59.409Z,55.83
2023-02-22T18:51:28.214Z,66.57
2023-02-22T18:54:00.256Z,58.33
2023-02-22T18:56:31.192Z,76.10
2023-02-22T18:59:01.307Z,67.50
2023-02-22T19:01:31.523Z,73.67
2023-02-22T19:04:01.752Z,73.53
2023-02-22T19:06:30.253Z,75.33
2023-02-22T19:09:01.207Z,71.43
2023-02-22T19:11:31.177Z,74.47
2023-02-22T19:13:59.653Z,66.87
2023-02-22T19:16:28.522Z,80.47
2023-02-22T19:18:58.451Z,66.07
2023-02-22T19:21:29.299Z,78.93
2023-02-22T19:24:01.988Z,71.73
2023-02-22T19:26:32.046Z,77.57
2023-02-22T19:29:06.005Z,66.20
2023-02-22T19:31:35.283Z,83.47
2023-02-22T19:34:05.627Z,66.67
2023-02-22T19:36:34.228Z,71.07
2023-02-22T19:39:02.713Z,72.93
2023-02-22T19:41:32.778Z,74.37
2023-02-22T19:44:02.923Z,71.87
2023-02-22T19:46:31.626Z,80.50
2023-02-22T19:49:00.195Z,74.13
2023-02-22T19:51:30.378Z,75.97
2023-02-22T19:54:00.411Z,71.80
2023-02-22T19:56:30.854Z,65.40
2023-02-22T19:59:02.493Z,67.30
2023-02-22T20:01:33.295Z,79.87
2023-02-22T20:04:03.628Z,70.67
2023-02-22T20:06:34.915Z,68.30
2023-02-22T20:09:04.508Z,77.60
2023-02-22T20:11:32.993Z,72.50
2023-02-22T20:14:05.667Z,64.20
2023-02-22T20:16:34.940Z,65.27
2023-02-22T20:19:03.936Z,67.47
2023-02-22T20:21:33.981Z,66.73
2023-02-22T20:24:04.312Z,70.57
2023-02-22T20:26:34.911Z,66.97
2023-02-22T20:29:05.970Z,71.70
2023-02-22T20:31:34.695Z,71.77
2023-02-22T20:34:06.118Z,66.23
2023-02-22T20:36:36.155Z,70.17
2023-02-22T20:39:13.022Z,74.87
2023-02-22T20:41:43.229Z,71.40
2023-02-22T20:44:14.875Z,69.77
2023-02-22T20:46:44.313Z,64.93
2023-02-22T20:49:14.885Z,66.10
2023-02-22T20:51:44.664Z,73.33
2023-02-22T20:54:13.555Z,69.33
2023-02-22T20:56:45.116Z,73.07
2023-02-22T20:59:17.000Z,79.73
2023-02-22T21:01:47.379Z,89.50
2023-02-22T21:04:15.881Z,104.87
2023-02-22T21:06:44.553Z,85.87
2023-02-22T21:09:14.758Z,83.70
2023-02-22T21:11:43.666Z,79.10
2023-02-22T21:14:18.444Z,155.13
2023-02-22T21:16:49.389Z,96.53
2023-02-22T21:19:28.133Z,82.43
2023-02-22T21:21:58.286Z,81.67
2023-02-22T21:24:28.361Z,71.70
2023-02-22T21:26:58.497Z,81.30
2023-02-22T21:29:28.812Z,76.77
2023-02-22T21:31:57.437Z,73.93
2023-02-22T21:34:26.204Z,79.40
2023-02-22T21:36:54.803Z,81.93
2023-02-22T21:39:28.142Z,77.93
2023-02-22T21:42:00.070Z,73.60
2023-02-22T21:44:30.704Z,77.10
2023-02-22T21:46:59.276Z,69.77
2023-02-22T21:49:28.807Z,82.27
2023-02-22T21:51:57.549Z,80.33
2023-02-22T21:54:27.902Z,73.50
2023-02-22T21:56:56.361Z,70.53
2023-02-22T21:59:25.169Z,78.97
2023-02-22T22:01:56.661Z,69.40
2023-02-22T22:04:27.764Z,62.57
2023-02-22T22:06:57.815Z,69.13
2023-02-22T22:09:32.573Z,68.97
2023-02-22T22:12:04.857Z,75.23
2023-02-22T22:14:34.537Z,67.70
2023-02-22T22:17:07.814Z,57.53
2023-02-22T22:19:40.342Z,58.63
2023-02-22T22:22:09.320Z,67.93
2023-02-22T22:24:41.253Z,68.47
2023-02-22T22:27:12.227Z,63.53
2023-02-22T22:29:40.726Z,63.10
2023-02-22T22:32:10.839Z,64.73
2023-02-22T22:34:39.453Z,65.43
2023-02-22T22:37:08.643Z,66.97
2023-02-22T22:39:38.421Z,71.77
2023-02-22T22:42:08.906Z,63.00
2023-02-22T22:44:41.903Z,59.47
2023-02-22T22:47:13.626Z,74.40
2023-02-22T22:49:42.536Z,68.37
2023-02-22T22:52:13.806Z,73.03
2023-02-22T22:54:43.218Z,110.57
2023-02-22T22:57:12.630Z,130.40
2023-02-22T22:59:41.113Z,102.10
2023-02-22T23:02:11.357Z,78.87
2023-02-22T23:04:39.861Z,75.60
2023-02-22T23:07:08.461Z,85.43
2023-02-22T23:09:38.676Z,74.87
2023-02-22T23:12:09.624Z,71.60
2023-02-22T23:14:40.048Z,73.83
2023-02-22T23:17:14.894Z,70.27
2023-02-22T23:19:46.054Z,65.13
2023-02-22T23:22:15.126Z,74.40
2023-02-22T23:24:44.966Z,75.60
2023-02-22T23:27:13.640Z,73.00
2023-02-22T23:29:46.415Z,74.07
2023-02-22T23:32:15.172Z,74.17
2023-02-22T23:34:49.505Z,63.37
2023-02-22T23:37:20.606Z,61.50
2023-02-22T23:39:50.817Z,65.23
2023-02-22T23:42:19.398Z,70.67
2023-02-22T23:44:49.162Z,72.90
2023-02-22T23:47:17.556Z,64.60
2023-02-22T23:49:49.519Z,74.83
2023-02-22T23:52:23.831Z,68.40
2023-02-22T23:54:53.780Z,68.93
2023-02-22T23:57:22.358Z,68.43
2023-02-22T23:59:51.324Z,69.77
